Main page
METAR-TAF:

METAR-TAF

Airports :

International Airport Irkutsk

Irkutsk, Russia

latitude: 52-16N, longitude: 104-19E, elevation: 513 m

Current weather observation

The report was made 34 minutes ago, at 17:00 UTC
Calm wind
Temperature -1°C
Humidity 93%
Pressure 1019 hPa
Visibility 10 km or more
no clouds below 1500 m and no cumulonimbus

METAR: UIII 211700Z 00000MPS CAVOK M01/M02 Q1019 R30/60D NOSIG RMK QFE720/0960

Time: 01:34 (17:34 UTC)

Forecast

The report was made 3 hours and 34 minutes ago, at 14:00 UTC
Forecast valid from 21 at 15 UTC to 22 at 15 UTC
Wind 6 kt from the East
Visibility 10 km or more
Temporary
from 21 at 21 UTC to 22 at 03 UTC
Visibility: 0300 m
at a height of 100 ft
freezing fog
Becoming
from 22 at 03 UTC to 22 at 04 UTC
Wind 10 kt from the South/Southeast

TAF: UIII 211400Z 2115/2215 08003MPS 9999 NSC TEMPO 2121/2203 0300 FZFG VV001 BECMG 2203/2204 16005MPS

Weather observations and forecasts of more than 4000 airports (METAR and TAF reports).

The available stations are represented by yellow and red dots on the map.

Hover mouse over dot to see the name of the station.

Then click to see weather observations and forecasts.

To change the map : click on the green buttons with a black cross to zoom in, on the green button with a dash to zoom out, or on the green arrows for adjacent maps.


METAR-TAF: